Wetterdaten: Woche 11.05.20 - 17.05.20 (KW20)
Datum Zeit Temp. Aussen Temp. o. S. Temp +5cm Feuchte Auss Luftdruck Regen Sonnenschein Regendauer Solar Windben Empfang
11.05.2020 00:00 8,2 C 7,1 C 7,4 C 88 % 1009,8 hPa 0,0 l/m 0,00 h 0,07 h 0 W/m 9,4 km/h (2 Bft) 98,10 %
11.05.2020 01:00 7,6 C 7,0 C 7,1 C 84 % 1010,3 hPa 0,0 l/m 0,00 h 0,00 h 0 W/m 8,9 km/h (2 Bft) 94,94 %
11.05.2020 02:00 7,2 C 6,2 C 6,6 C 83 % 1010,6 hPa 0,0 l/m 0,00 h 0,07 h 0 W/m 8,2 km/h (2 Bft) 98,01 %
11.05.2020 03:00 6,7 C 5,6 C 5,9 C 86 % 1010,7 hPa 0,0 l/m 0,00 h 0,23 h 0 W/m 7,1 km/h (2 Bft) 96,99 %
11.05.2020 04:00 6,4 C 5,8 C 5,9 C 86 % 1010,7 hPa 0,0 l/m 0,00 h 0,10 h 0 W/m 9,8 km/h (2 Bft) 96,86 %
11.05.2020 05:00 6,4 C 5,6 C 5,9 C 81 % 1010,8 hPa 0,0 l/m 0,00 h 0,00 h 0 W/m 11,3 km/h (2 Bft) 98,01 %
11.05.2020 06:00 6,3 C 5,6 C 5,6 C 79 % 1011,1 hPa 0,0 l/m 0,00 h 0,00 h 7 W/m 10,7 km/h (2 Bft) 96,39 %
11.05.2020 07:00 6,2 C 5,7 C 5,6 C 78 % 1011,2 hPa 0,0 l/m 0,00 h 0,00 h 21 W/m 8,5 km/h (2 Bft) 96,13 %
11.05.2020 08:00 6,5 C 6,6 C 6,5 C 76 % 1011,4 hPa 0,0 l/m 0,00 h 0,00 h 78 W/m 8,7 km/h (2 Bft) 99,57 %
11.05.2020 09:00 8,0 C 10,1 C 10,6 C 72 % 1011,3 hPa 0,0 l/m 0,53 h 0,00 h 272 W/m 11,6 km/h (2 Bft) 94,49 %
11.05.2020 10:00 10,1 C 12,9 C 14,3 C 67 % 1011,3 hPa 0,0 l/m 0,47 h 0,00 h 370 W/m 13,3 km/h (3 Bft) 97,26 %
11.05.2020 11:00 11,6 C 14,2 C 13,3 C 62 % 1011,1 hPa 0,0 l/m 0,37 h 0,00 h 452 W/m 14,2 km/h (3 Bft) 98,16 %
11.05.2020 12:00 12,2 C 15,5 C 14,1 C 60 % 1011,0 hPa 0,0 l/m 0,37 h 0,00 h 534 W/m 14,0 km/h (3 Bft) 97,13 %
11.05.2020 13:00 13,9 C 17,0 C 16,9 C 54 % 1011,0 hPa 0,0 l/m 0,50 h 0,00 h 559 W/m 15,5 km/h (3 Bft) 99,80 %
11.05.2020 14:00 14,3 C 16,2 C 16,4 C 51 % 1011,2 hPa 0,0 l/m 0,27 h 0,00 h 441 W/m 14,0 km/h (3 Bft) 95,53 %
11.05.2020 15:00 14,5 C 17,5 C 15,0 C 50 % 1011,5 hPa 0,0 l/m 0,58 h 0,00 h 647 W/m 13,6 km/h (3 Bft) 96,44 %
11.05.2020 16:00 16,3 C 20,0 C 15,8 C 45 % 1011,8 hPa 0,0 l/m 0,97 h 0,00 h 760 W/m 15,0 km/h (3 Bft) 97,51 %
11.05.2020 17:00 16,2 C 18,2 C 15,0 C 44 % 1012,4 hPa 0,0 l/m 1,00 h 0,00 h 606 W/m 15,7 km/h (3 Bft) 97,67 %
11.05.2020 18:00 14,3 C 14,2 C 12,1 C 46 % 1013,4 hPa 0,0 l/m 0,68 h 0,00 h 305 W/m 15,0 km/h (3 Bft) 99,85 %
11.05.2020 19:00 11,9 C 10,9 C 10,2 C 48 % 1014,3 hPa 0,0 l/m 0,13 h 0,00 h 83 W/m 11,4 km/h (2 Bft) 95,39 %
11.05.2020 20:00 10,3 C 9,1 C 8,9 C 49 % 1015,3 hPa 0,0 l/m 0,00 h 0,00 h 25 W/m 10,3 km/h (2 Bft) 97,35 %
11.05.2020 21:00 8,9 C 7,4 C 7,5 C 51 % 1016,6 hPa 0,0 l/m 0,00 h 0,00 h 6 W/m 13,0 km/h (3 Bft) 98,33 %
11.05.2020 22:00 7,6 C 6,3 C 6,4 C 53 % 1017,6 hPa 0,0 l/m 0,00 h 0,00 h 0 W/m 9,9 km/h (2 Bft) 97,51 %
11.05.2020 23:00 6,6 C 5,0 C 5,2 C 60 % 1018,5 hPa 0,0 l/m 0,00 h 0,00 h 0 W/m 4,4 km/h (1 Bft) 96,50 %
12.05.2020 00:00 5,7 C 4,1 C 4,0 C 66 % 1019,1 hPa 0,0 l/m 0,00 h 0,00 h 0 W/m 1,7 km/h (1 Bft) 98,06 %
12.05.2020 01:00 4,8 C 2,9 C 2,7 C 70 % 1019,5 hPa 0,0 l/m 0,00 h 0,00 h 0 W/m 0,0 km/h (0 Bft) 93,55 %
12.05.2020 02:00 3,9 C 1,9 C 1,7 C 74 % 1019,9 hPa 0,0 l/m 0,00 h 0,00 h 0 W/m 0,0 km/h (0 Bft) 94,96 %
12.05.2020 03:00 2,9 C 1,1 C 0,9 C 79 % 1020,1 hPa 0,0 l/m 0,00 h 0,00 h 0 W/m 0,0 km/h (0 Bft) 97,01 %
12.05.2020 04:00 2,1 C 0,6 C 0,6 C 82 % 1020,4 hPa 0,0 l/m 0,00 h 0,00 h 0 W/m 0,1 km/h (0 Bft) 96,78 %
12.05.2020 05:00 1,6 C 0,2 C 0,2 C 85 % 1020,6 hPa 0,0 l/m 0,00 h 0,00 h 4 W/m 0,0 km/h (0 Bft) 98,39 %
12.05.2020 06:00 1,4 C 1,1 C 0,4 C 88 % 1020,7 hPa 0,0 l/m 0,00 h 0,00 h 15 W/m 0,0 km/h (0 Bft) 95,26 %
12.05.2020 07:00 2,4 C 3,3 C 2,5 C 92 % 1021,0 hPa 0,0 l/m 0,00 h 0,00 h 34 W/m 0,7 km/h (0 Bft) 97,45 %
12.05.2020 08:00 4,7 C 9,1 C 7,6 C 92 % 1021,2 hPa 0,0 l/m 0,33 h 0,00 h 178 W/m 3,3 km/h (1 Bft) 95,47 %
12.05.2020 09:00 9,5 C 15,3 C 18,9 C 73 % 1021,2 hPa 0,0 l/m 0,93 h 0,00 h 529 W/m 4,0 km/h (1 Bft) 98,19 %
12.05.2020 10:00 12,2 C 18,1 C 22,4 C 58 % 1021,0 hPa 0,0 l/m 0,97 h 0,00 h 766 W/m 7,0 km/h (2 Bft) 95,78 %
12.05.2020 11:00 13,2 C 15,5 C 14,4 C 54 % 1020,7 hPa 0,0 l/m 0,42 h 0,00 h 530 W/m 8,5 km/h (2 Bft) 96,97 %
12.05.2020 12:00 12,1 C 14,2 C 13,2 C 56 % 1020,2 hPa 0,0 l/m 0,20 h 0,00 h 337 W/m 7,1 km/h (2 Bft) 95,87 %
12.05.2020 13:00 12,6 C 16,5 C 15,5 C 55 % 1019,7 hPa 0,0 l/m 0,90 h 0,00 h 613 W/m 5,8 km/h (2 Bft) 95,64 %
12.05.2020 14:00 13,6 C 16,2 C 15,6 C 52 % 1019,1 hPa 0,0 l/m 0,40 h 0,00 h 516 W/m 9,0 km/h (2 Bft) 99,29 %
12.05.2020 15:00 13,9 C 16,3 C 14,2 C 51 % 1018,6 hPa 0,0 l/m 0,70 h 0,00 h 481 W/m 7,4 km/h (2 Bft) 96,80 %
12.05.2020 16:00 13,1 C 13,7 C 12,8 C 52 % 1018,1 hPa 0,0 l/m 0,23 h 0,00 h 260 W/m 5,7 km/h (1 Bft) 99,44 %
12.05.2020 17:00 14,3 C 16,3 C 13,8 C 50 % 1017,6 hPa 0,0 l/m 0,83 h 0,00 h 382 W/m 4,8 km/h (1 Bft) 96,82 %
12.05.2020 18:00 13,6 C 13,3 C 11,8 C 52 % 1017,1 hPa 0,0 l/m 0,27 h 0,00 h 199 W/m 5,0 km/h (1 Bft) 95,94 %
12.05.2020 19:00 12,2 C 11,5 C 10,7 C 56 % 1016,6 hPa 0,0 l/m 0,07 h 0,00 h 94 W/m 2,6 km/h (1 Bft) 99,47 %
12.05.2020 20:00 11,2 C 9,2 C 8,7 C 59 % 1016,1 hPa 0,0 l/m 0,00 h 0,00 h 25 W/m 0,2 km/h (0 Bft) 95,50 %
12.05.2020 21:00 9,7 C 7,5 C 6,6 C 63 % 1016,1 hPa 0,0 l/m 0,00 h 0,00 h 6 W/m 0,0 km/h (0 Bft) 96,60 %
12.05.2020 22:00 8,7 C 7,5 C 7,1 C 69 % 1016,2 hPa 0,0 l/m 0,00 h 0,00 h 0 W/m 0,0 km/h (0 Bft) 98,79 %
12.05.2020 23:00 8,4 C 6,8 C 6,4 C 72 % 1015,8 hPa 0,0 l/m 0,00 h 0,00 h 0 W/m 0,0 km/h (0 Bft) 99,00 %
13.05.2020 00:00 7,3 C 4,7 C 4,3 C 76 % 1015,7 hPa 0,0 l/m 0,00 h 0,00 h 0 W/m 0,0 km/h (0 Bft) 96,27 %
13.05.2020 01:00 5,9 C 3,6 C 3,1 C 81 % 1015,5 hPa 0,0 l/m 0,00 h 0,00 h 0 W/m 0,0 km/h (0 Bft) 97,51 %
13.05.2020 02:00 4,8 C 3,1 C 2,7 C 84 % 1015,3 hPa 0,0 l/m 0,00 h 0,00 h 0 W/m 0,0 km/h (0 Bft) 96,30 %
13.05.2020 03:00 4,1 C 2,5 C 2,0 C 85 % 1015,1 hPa 0,0 l/m 0,00 h 0,00 h 0 W/m 0,1 km/h (0 Bft) 97,93 %
13.05.2020 04:00 3,3 C 1,5 C 1,2 C 85 % 1015,1 hPa 0,0 l/m 0,00 h 0,00 h 0 W/m 0,0 km/h (0 Bft) 95,46 %
13.05.2020 05:00 2,7 C 1,6 C 1,2 C 87 % 1014,8 hPa 0,0 l/m 0,00 h 0,00 h 5 W/m 0,0 km/h (0 Bft) 97,86 %
13.05.2020 06:00 3,1 C 3,0 C 2,6 C 91 % 1014,8 hPa 0,0 l/m 0,00 h 0,00 h 16 W/m 0,0 km/h (0 Bft) 99,23 %
13.05.2020 07:00 3,6 C 4,5 C 3,1 C 93 % 1014,9 hPa 0,0 l/m 0,00 h 0,00 h 41 W/m 0,0 km/h (0 Bft) 94,99 %
13.05.2020 08:00 6,2 C 13,3 C 8,8 C 93 % 1014,8 hPa 0,0 l/m 0,27 h 0,00 h 154 W/m 0,9 km/h (0 Bft) 98,79 %
13.05.2020 09:00 11,8 C 17,2 C 21,4 C 67 % 1014,5 hPa 0,0 l/m 1,00 h 0,00 h 523 W/m 3,8 km/h (1 Bft) 97,65 %
13.05.2020 10:00 14,2 C 20,3 C 23,7 C 56 % 1014,0 hPa 0,0 l/m 1,00 h 0,00 h 715 W/m 5,0 km/h (1 Bft) 98,36 %
13.05.2020 11:00 15,9 C 21,5 C 18,0 C 49 % 1013,9 hPa 0,0 l/m 1,00 h 0,00 h 869 W/m 8,9 km/h (2 Bft) 99,22 %
13.05.2020 12:00 16,8 C 22,9 C 18,2 C 49 % 1013,5 hPa 0,0 l/m 1,00 h 0,00 h 980 W/m 7,8 km/h (2 Bft) 97,35 %
13.05.2020 13:00 17,2 C 22,0 C 21,6 C 47 % 1012,7 hPa 0,0 l/m 0,80 h 0,00 h 803 W/m 9,0 km/h (2 Bft) 98,79 %
13.05.2020 14:00 16,5 C 17,2 C 17,0 C 48 % 1012,2 hPa 0,0 l/m 0,10 h 0,00 h 303 W/m 5,7 km/h (1 Bft) 97,58 %
13.05.2020 15:00 14,6 C 14,2 C 14,3 C 60 % 1012,3 hPa 0,0 l/m 0,07 h 0,00 h 223 W/m 12,9 km/h (3 Bft) 96,37 %
13.05.2020 16:00 12,3 C 12,4 C 12,3 C 67 % 1012,4 hPa 0,0 l/m 0,00 h 0,00 h 198 W/m 11,7 km/h (2 Bft) 97,45 %
13.05.2020 17:00 12,4 C 12,6 C 12,5 C 65 % 1012,4 hPa 0,0 l/m 0,03 h 0,00 h 194 W/m 8,9 km/h (2 Bft) 96,21 %
13.05.2020 18:00 11,6 C 11,1 C 11,3 C 66 % 1012,6 hPa 0,0 l/m 0,00 h 0,00 h 105 W/m 6,5 km/h (2 Bft) 99,05 %
13.05.2020 19:00 10,7 C 9,7 C 9,8 C 69 % 1012,9 hPa 0,0 l/m 0,00 h 0,00 h 39 W/m 5,0 km/h (1 Bft) 95,91 %
13.05.2020 20:00 10,1 C 9,1 C 9,2 C 71 % 1013,3 hPa 0,0 l/m 0,00 h 0,00 h 29 W/m 5,3 km/h (1 Bft) 97,08 %
13.05.2020 21:00 9,5 C 8,3 C 8,3 C 73 % 1014,0 hPa 0,0 l/m 0,00 h 0,00 h 5 W/m 2,5 km/h (1 Bft) 96,83 %
13.05.2020 22:00 8,8 C 7,4 C 7,5 C 73 % 1014,8 hPa 0,0 l/m 0,00 h 0,00 h 0 W/m 2,6 km/h (1 Bft) 99,08 %
13.05.2020 23:00 7,7 C 6,0 C 6,0 C 71 % 1015,4 hPa 0,0 l/m 0,00 h 0,00 h 0 W/m 1,3 km/h (1 Bft) 94,22 %
14.05.2020 00:00 6,7 C 5,6 C 5,6 C 72 % 1016,2 hPa 0,0 l/m 0,00 h 0,00 h 0 W/m 3,8 km/h (1 Bft) 96,17 %
14.05.2020 01:00 6,1 C 4,8 C 4,9 C 74 % 1016,9 hPa 0,0 l/m 0,00 h 0,00 h 0 W/m 3,4 km/h (1 Bft) 97,70 %
14.05.2020 02:00 5,5 C 4,1 C 4,1 C 76 % 1017,5 hPa 0,0 l/m 0,00 h 0,00 h 0 W/m 0,9 km/h (0 Bft) 97,58 %
14.05.2020 03:00 4,7 C 3,1 C 3,2 C 79 % 1017,8 hPa 0,0 l/m 0,00 h 0,00 h 0 W/m 1,6 km/h (1 Bft) 96,77 %
14.05.2020 04:00 3,8 C 2,2 C 2,1 C 81 % 1018,1 hPa 0,0 l/m 0,00 h 0,00 h 0 W/m 0,2 km/h (0 Bft) 96,98 %
14.05.2020 05:00 3,0 C 1,2 C 1,2 C 83 % 1018,7 hPa 0,0 l/m 0,00 h 0,00 h 5 W/m 0,0 km/h (0 Bft) 94,74 %
14.05.2020 06:00 2,3 C 1,6 C 1,5 C 86 % 1019,4 hPa 0,0 l/m 0,00 h 0,00 h 17 W/m 0,4 km/h (0 Bft) 96,73 %
14.05.2020 07:00 3,1 C 3,7 C 3,3 C 89 % 1019,8 hPa 0,0 l/m 0,00 h 0,00 h 36 W/m 3,1 km/h (1 Bft) 96,90 %
14.05.2020 08:00 5,9 C 10,6 C 8,4 C 85 % 1020,0 hPa 0,0 l/m 0,27 h 0,00 h 151 W/m 7,8 km/h (2 Bft) 97,73 %
14.05.2020 09:00 10,2 C 13,5 C 17,7 C 69 % 1020,4 hPa 0,0 l/m 0,60 h 0,00 h 358 W/m 8,4 km/h (2 Bft) 98,14 %
14.05.2020 10:00 11,7 C 16,5 C 20,4 C 66 % 1020,8 hPa 0,0 l/m 0,80 h 0,00 h 668 W/m 7,4 km/h (2 Bft) 99,64 %
14.05.2020 11:00 14,3 C 19,1 C 16,9 C 57 % 1020,8 hPa 0,0 l/m 0,73 h 0,00 h 732 W/m 7,3 km/h (2 Bft) 96,44 %
14.05.2020 12:00 15,3 C 20,8 C 17,3 C 52 % 1020,7 hPa 0,0 l/m 0,87 h 0,00 h 917 W/m 7,0 km/h (2 Bft) 99,26 %
14.05.2020 13:00 16,4 C 20,7 C 21,7 C 48 % 1020,4 hPa 0,0 l/m 0,77 h 0,00 h 831 W/m 9,0 km/h (2 Bft) 98,86 %
14.05.2020 14:00 17,0 C 21,7 C 21,3 C 46 % 1019,8 hPa 0,0 l/m 0,90 h 0,00 h 890 W/m 9,0 km/h (2 Bft) 97,20 %
14.05.2020 15:00 17,6 C 21,8 C 16,9 C 44 % 1019,3 hPa 0,0 l/m 0,97 h 0,00 h 846 W/m 9,7 km/h (2 Bft) 97,88 %
14.05.2020 16:00 17,7 C 21,3 C 16,9 C 42 % 1018,9 hPa 0,0 l/m 1,00 h 0,00 h 751 W/m 9,1 km/h (2 Bft) 96,11 %
14.05.2020 17:00 18,0 C 20,3 C 16,1 C 41 % 1018,6 hPa 0,0 l/m 1,00 h 0,00 h 596 W/m 10,2 km/h (2 Bft) 98,14 %
14.05.2020 18:00 17,1 C 17,5 C 13,8 C 41 % 1018,5 hPa 0,0 l/m 1,00 h 0,00 h 410 W/m 7,9 km/h (2 Bft) 97,66 %
14.05.2020 19:00 14,9 C 13,3 C 12,1 C 43 % 1018,5 hPa 0,0 l/m 0,33 h 0,00 h 121 W/m 6,3 km/h (2 Bft) 96,43 %
14.05.2020 20:00 12,9 C 11,2 C 10,6 C 50 % 1018,8 hPa 0,0 l/m 0,00 h 0,00 h 26 W/m 4,3 km/h (1 Bft) 99,00 %
14.05.2020 21:00 11,3 C 9,4 C 9,1 C 54 % 1019,3 hPa 0,0 l/m 0,00 h 0,00 h 7 W/m 2,2 km/h (1 Bft) 96,95 %
14.05.2020 22:00 9,9 C 8,3 C 8,0 C 59 % 1019,6 hPa 0,0 l/m 0,00 h 0,00 h 0 W/m 3,5 km/h (1 Bft) 97,03 %
14.05.2020 23:00 9,0 C 7,6 C 7,6 C 62 % 1019,8 hPa 0,0 l/m 0,00 h 0,00 h 0 W/m 4,3 km/h (1 Bft) 96,86 %
15.05.2020 00:00 8,2 C 6,6 C 6,6 C 66 % 1020,1 hPa 0,0 l/m 0,00 h 0,00 h 0 W/m 2,5 km/h (1 Bft) 96,96 %
15.05.2020 01:00 7,3 C 5,6 C 5,4 C 70 % 1020,1 hPa 0,0 l/m 0,00 h 0,00 h 0 W/m 1,3 km/h (1 Bft) 96,86 %
15.05.2020 02:00 6,3 C 4,5 C 4,2 C 73 % 1019,9 hPa 0,0 l/m 0,00 h 0,00 h 0 W/m 0,5 km/h (0 Bft) 97,21 %
15.05.2020 03:00 5,3 C 3,7 C 3,5 C 77 % 1019,7 hPa 0,0 l/m 0,00 h 0,00 h 0 W/m 1,0 km/h (0 Bft) 97,33 %
15.05.2020 04:00 4,6 C 3,2 C 3,2 C 80 % 1019,7 hPa 0,0 l/m 0,00 h 0,00 h 0 W/m 1,2 km/h (1 Bft) 94,56 %
15.05.2020 05:00 3,9 C 2,6 C 2,5 C 82 % 1020,1 hPa 0,0 l/m 0,00 h 0,00 h 6 W/m 0,5 km/h (0 Bft) 97,37 %
15.05.2020 06:00 3,5 C 3,0 C 2,6 C 85 % 1020,7 hPa 0,0 l/m 0,00 h 0,00 h 17 W/m 1,1 km/h (1 Bft) 98,27 %
15.05.2020 07:00 4,2 C 4,9 C 4,1 C 87 % 1021,3 hPa 0,0 l/m 0,00 h 0,00 h 36 W/m 2,9 km/h (1 Bft) 97,51 %
15.05.2020 08:00 7,2 C 11,8 C 9,7 C 81 % 1021,5 hPa 0,0 l/m 0,27 h 0,00 h 144 W/m 7,1 km/h (2 Bft) 96,96 %
15.05.2020 09:00 11,7 C 16,6 C 22,7 C 66 % 1021,6 hPa 0,0 l/m 1,00 h 0,00 h 550 W/m 6,7 km/h (2 Bft) 95,81 %
15.05.2020 10:00 13,9 C 19,1 C 25,7 C 59 % 1021,9 hPa 0,0 l/m 1,00 h 0,00 h 717 W/m 6,9 km/h (2 Bft) 97,30 %
15.05.2020 11:00 15,5 C 21,1 C 18,8 C 52 % 1022,0 hPa 0,0 l/m 1,00 h 0,00 h 853 W/m 9,7 km/h (2 Bft) 96,37 %
15.05.2020 12:00 17,1 C 22,9 C 18,8 C 48 % 1022,0 hPa 0,0 l/m 1,00 h 0,00 h 937 W/m 7,7 km/h (2 Bft) 96,74 %
15.05.2020 13:00 18,2 C 23,9 C 25,5 C 46 % 1022,1 hPa 0,0 l/m 1,00 h 0,00 h 970 W/m 7,5 km/h (2 Bft) 98,22 %
15.05.2020 14:00 19,3 C 24,0 C 24,6 C 44 % 1022,1 hPa 0,0 l/m 1,00 h 0,00 h 937 W/m 8,3 km/h (2 Bft) 94,24 %
15.05.2020 15:00 19,6 C 24,1 C 18,6 C 46 % 1022,1 hPa 0,0 l/m 0,90 h 0,00 h 856 W/m 10,6 km/h (2 Bft) 98,93 %
15.05.2020 16:00 19,8 C 23,5 C 18,7 C 46 % 1022,3 hPa 0,0 l/m 0,90 h 0,00 h 789 W/m 7,9 km/h (2 Bft) 98,58 %
15.05.2020 17:00 19,0 C 19,8 C 17,7 C 46 % 1022,4 hPa 0,0 l/m 0,65 h 0,00 h 424 W/m 6,5 km/h (2 Bft) 97,66 %
15.05.2020 18:00 16,3 C 15,5 C 15,2 C 51 % 1022,6 hPa 0,0 l/m 0,37 h 0,00 h 188 W/m 5,4 km/h (1 Bft) 97,79 %
15.05.2020 19:00 14,9 C 14,1 C 14,1 C 54 % 1022,7 hPa 0,0 l/m 0,10 h 0,00 h 95 W/m 3,6 km/h (1 Bft) 97,22 %
15.05.2020 20:00 13,9 C 12,2 C 12,2 C 57 % 1022,9 hPa 0,0 l/m 0,00 h 0,00 h 30 W/m 1,3 km/h (1 Bft) 96,69 %
15.05.2020 21:00 12,8 C 11,3 C 11,2 C 60 % 1023,2 hPa 0,0 l/m 0,00 h 0,00 h 6 W/m 0,2 km/h (0 Bft) 98,15 %
15.05.2020 22:00 12,1 C 10,2 C 9,8 C 63 % 1023,6 hPa 0,0 l/m 0,00 h 0,00 h 0 W/m 0,2 km/h (0 Bft) 98,93 %
15.05.2020 23:00 10,8 C 8,2 C 7,6 C 67 % 1023,9 hPa 0,0 l/m 0,00 h 0,00 h 0 W/m 0,0 km/h (0 Bft) 96,58 %
16.05.2020 00:00 9,3 C 6,8 C 6,4 C 72 % 1024,0 hPa 0,0 l/m 0,00 h 0,00 h 0 W/m 0,0 km/h (0 Bft) 97,12 %
16.05.2020 01:00 8,0 C 5,7 C 5,2 C 76 % 1024,0 hPa 0,0 l/m 0,00 h 0,00 h 0 W/m 0,0 km/h (0 Bft) 96,58 %
16.05.2020 02:00 6,9 C 4,5 C 4,1 C 80 % 1023,8 hPa 0,0 l/m 0,00 h 0,00 h 0 W/m 0,0 km/h (0 Bft) 96,94 %
16.05.2020 03:00 5,8 C 3,6 C 3,4 C 82 % 1023,5 hPa 0,0 l/m 0,00 h 0,00 h 0 W/m 0,0 km/h (0 Bft) 97,51 %
16.05.2020 04:00 5,1 C 3,7 C 3,2 C 85 % 1023,3 hPa 0,0 l/m 0,00 h 0,00 h 0 W/m 0,1 km/h (0 Bft) 96,65 %
16.05.2020 05:00 4,6 C 2,9 C 2,7 C 87 % 1023,3 hPa 0,0 l/m 0,00 h 0,00 h 6 W/m 0,0 km/h (0 Bft) 98,79 %
16.05.2020 06:00 4,2 C 3,9 C 3,0 C 89 % 1023,8 hPa 0,0 l/m 0,00 h 0,00 h 16 W/m 0,0 km/h (0 Bft) 96,43 %
16.05.2020 07:00 5,1 C 6,4 C 4,8 C 93 % 1024,0 hPa 0,0 l/m 0,00 h 0,00 h 33 W/m 0,7 km/h (0 Bft) 96,02 %
16.05.2020 08:00 8,3 C 14,5 C 11,3 C 92 % 1024,2 hPa 0,0 l/m 0,23 h 0,00 h 135 W/m 2,8 km/h (1 Bft) 98,79 %
16.05.2020 09:00 14,1 C 19,3 C 23,6 C 68 % 1024,2 hPa 0,0 l/m 1,00 h 0,00 h 540 W/m 7,4 km/h (2 Bft) 97,30 %
16.05.2020 10:00 16,9 C 21,6 C 26,4 C 56 % 1024,0 hPa 0,0 l/m 1,00 h 0,00 h 699 W/m 8,0 km/h (2 Bft) 98,94 %
16.05.2020 11:00 18,0 C 21,7 C 20,6 C 51 % 1023,9 hPa 0,0 l/m 0,67 h 0,00 h 702 W/m 8,2 km/h (2 Bft) 98,11 %
16.05.2020 12:00 18,6 C 23,4 C 20,0 C 49 % 1023,6 hPa 0,0 l/m 0,83 h 0,00 h 906 W/m 11,5 km/h (2 Bft) 98,23 %
16.05.2020 13:00 19,7 C 23,8 C 22,3 C 47 % 1023,1 hPa 0,0 l/m 0,87 h 0,00 h 709 W/m 7,8 km/h (2 Bft) 98,00 %
16.05.2020 14:00 19,5 C 20,9 C 20,9 C 47 % 1022,6 hPa 0,0 l/m 0,53 h 0,00 h 499 W/m 10,3 km/h (2 Bft) 97,29 %
16.05.2020 15:00 18,4 C 19,8 C 18,7 C 49 % 1022,1 hPa 0,0 l/m 0,43 h 0,00 h 393 W/m 7,8 km/h (2 Bft) 97,22 %
16.05.2020 16:00 19,7 C 21,9 C 19,1 C 48 % 1021,7 hPa 0,0 l/m 0,47 h 0,00 h 472 W/m 9,0 km/h (2 Bft) 98,08 %
16.05.2020 17:00 19,3 C 20,5 C 18,4 C 49 % 1021,2 hPa 0,0 l/m 0,40 h 0,00 h 322 W/m 5,2 km/h (1 Bft) 99,29 %
16.05.2020 18:00 18,6 C 18,4 C 17,1 C 51 % 1021,0 hPa 0,0 l/m 0,37 h 0,00 h 211 W/m 8,2 km/h (2 Bft) 94,88 %
16.05.2020 19:00 17,1 C 16,5 C 15,5 C 56 % 1021,1 hPa 0,0 l/m 0,70 h 0,00 h 140 W/m 11,6 km/h (2 Bft) 98,29 %
16.05.2020 20:00 15,3 C 13,9 C 13,4 C 59 % 1021,6 hPa 0,0 l/m 0,20 h 0,00 h 34 W/m 11,2 km/h (2 Bft) 99,36 %
16.05.2020 21:00 13,7 C 11,8 C 11,8 C 63 % 1022,2 hPa 0,0 l/m 0,00 h 0,00 h 10 W/m 4,9 km/h (1 Bft) 94,73 %
16.05.2020 22:00 12,1 C 10,0 C 10,1 C 72 % 1022,6 hPa 0,0 l/m 0,00 h 0,00 h 0 W/m 4,1 km/h (1 Bft) 94,93 %
16.05.2020 23:00 10,7 C 8,2 C 7,9 C 76 % 1022,8 hPa 0,0 l/m 0,00 h 0,00 h 0 W/m 0,0 km/h (0 Bft) 98,44 %
17.05.2020 00:00 9,4 C 7,5 C 7,3 C 80 % 1023,1 hPa 0,0 l/m 0,00 h 0,00 h 0 W/m 0,1 km/h (0 Bft) 98,59 %
17.05.2020 01:00 8,3 C 6,2 C 6,1 C 82 % 1023,1 hPa 0,0 l/m 0,00 h 0,00 h 0 W/m 0,0 km/h (0 Bft) 94,55 %
17.05.2020 02:00 7,2 C 5,4 C 5,2 C 83 % 1023,4 hPa 0,0 l/m 0,00 h 0,00 h 0 W/m 0,1 km/h (0 Bft) 99,00 %
17.05.2020 03:00 6,4 C 4,5 C 4,4 C 85 % 1023,6 hPa 0,0 l/m 0,00 h 0,00 h 0 W/m 0,0 km/h (0 Bft) 94,58 %
17.05.2020 04:00 5,6 C 3,7 C 3,4 C 86 % 1023,6 hPa 0,0 l/m 0,00 h 0,00 h 0 W/m 0,0 km/h (0 Bft) 97,01 %
17.05.2020 05:00 4,9 C 3,2 C 3,0 C 87 % 1023,7 hPa 0,0 l/m 0,00 h 0,00 h 6 W/m 0,0 km/h (0 Bft) 96,23 %
17.05.2020 06:00 4,5 C 4,1 C 3,2 C 89 % 1024,0 hPa 0,0 l/m 0,00 h 0,00 h 16 W/m 0,0 km/h (0 Bft) 97,05 %
17.05.2020 07:00 5,4 C 6,6 C 5,3 C 93 % 1024,4 hPa 0,0 l/m 0,00 h 0,00 h 32 W/m 1,0 km/h (0 Bft) 99,07 %
17.05.2020 08:00 8,3 C 14,3 C 11,4 C 94 % 1024,7 hPa 0,0 l/m 0,20 h 0,00 h 128 W/m 0,4 km/h (0 Bft) 96,25 %
17.05.2020 09:00 13,4 C 19,0 C 23,8 C 76 % 1025,0 hPa 0,0 l/m 1,00 h 0,00 h 529 W/m 2,1 km/h (1 Bft) 98,22 %
17.05.2020 10:00 16,0 C 20,7 C 25,7 C 62 % 1025,2 hPa 0,0 l/m 1,00 h 0,00 h 690 W/m 5,1 km/h (1 Bft) 95,88 %
17.05.2020 11:00 18,0 C 24,0 C 20,3 C 56 % 1025,3 hPa 0,0 l/m 1,00 h 0,00 h 840 W/m 3,9 km/h (1 Bft) 97,08 %
17.05.2020 12:00 19,7 C 25,4 C 20,1 C 53 % 1025,2 hPa 0,0 l/m 0,93 h 0,00 h 882 W/m 4,5 km/h (1 Bft) 96,58 %
17.05.2020 13:00 19,6 C 22,0 C 21,4 C 51 % 1025,2 hPa 0,0 l/m 0,47 h 0,00 h 574 W/m 5,1 km/h (1 Bft) 96,23 %
17.05.2020 14:00 19,7 C 22,3 C 21,8 C 51 % 1024,7 hPa 0,0 l/m 0,43 h 0,00 h 572 W/m 4,8 km/h (1 Bft) 98,10 %
17.05.2020 15:00 19,8 C 22,0 C 19,4 C 50 % 1024,3 hPa 0,0 l/m 0,50 h 0,00 h 476 W/m 5,3 km/h (1 Bft) 98,02 %
17.05.2020 16:00 21,1 C 24,5 C 20,5 C 48 % 1024,0 hPa 0,0 l/m 0,90 h 0,00 h 580 W/m 6,3 km/h (2 Bft) 98,43 %
17.05.2020 17:00 21,3 C 23,0 C 19,8 C 47 % 1023,6 hPa 0,0 l/m 0,70 h 0,00 h 450 W/m 6,3 km/h (2 Bft) 95,59 %
17.05.2020 18:00 20,8 C 21,1 C 18,5 C 49 % 1023,4 hPa 0,0 l/m 0,77 h 0,00 h 345 W/m 6,2 km/h (2 Bft) 99,08 %
17.05.2020 19:00 19,4 C 18,1 C 16,6 C 52 % 1023,2 hPa 0,0 l/m 0,40 h 0,00 h 129 W/m 3,2 km/h (1 Bft) 98,36 %
17.05.2020 20:00 17,8 C 15,8 C 14,3 C 56 % 1023,3 hPa 0,0 l/m 0,00 h 0,00 h 31 W/m 0,2 km/h (0 Bft) 95,52 %
17.05.2020 21:00 15,9 C 12,9 C 11,5 C 63 % 1023,4 hPa 0,0 l/m 0,00 h 0,00 h 8 W/m 0,0 km/h (0 Bft) 99,71 %
17.05.2020 22:00 13,6 C 10,8 C 9,9 C 71 % 1023,5 hPa 0,0 l/m 0,00 h 0,00 h 0 W/m 0,0 km/h (0 Bft) 97,87 %
17.05.2020 23:00 11,9 C 9,5 C 8,9 C 76 % 1023,5 hPa 0,0 l/m 0,00 h 0,00 h 0 W/m 0,0 km/h (0 Bft) 96,94 %
Min-Datum _ 12.05.20 12.05.20 12.05.20 14.05.20 11.05.20 - - - - 11.05.20 12.05.20
_ Min-Zeit 06:18 05:04 05:16 17:18 00:04 - - - - 01:40 01:30
Minimum _ 1,3 C 0,0 C 0,0 C 40 % 1009,5 hPa - - - - 0,0 km/h (0 Bft) 36,36 %
Max-Datum _ 17.05.20 17.05.20 15.05.20 13.05.20 17.05.20 11.05.20 11.05.20 11.05.20 14.05.20 11.05.20 11.05.20
_ Max-Zeit 17:06 12:54 13:52 08:36 10:24 00:00 18:10 00:00 13:40 13:14 00:00
Maximum _ 21,7 C 27,8 C 32,8 C 95 % 1025,3 hPa 0,0 l/m 0,08 h 0,03 h 1164 W/m 45,1 km/h
W (6 Bft)
100,00 %
Durchschnitt _ 11,0 C 11,8 C 11,2 C 66 % 1019,0 hPa #0,0 l/m #51:48 h #28 min. 359 W/m 5,0 km/h (1 Bft) 97,25 %
© 2020 W. Hausmann